Terminal Aerodrome Forecast
Issued by NWS Jackson, MS

Home | Current Version | Previous Version | Text Only | Print | Product List | Glossary On
Versions: 1 2 3 4 5 6 7 8 9 10 11 12 13 14 15
032
FTUS44 KJAN 171740
TAFGLH
TAF
KGLH 171740Z 1718/1818 18013G23KT P6SM SCT050
     FM181100 20018G29KT P6SM OVC025=

USA.gov is the U.S. government's official web portal to all federal, state and local government web resources and services.